Time;durP1;ratioP1;P1;durP2;ratioP2;P2;SDS_P1;SDS_P2;PMS_P1;PMS_P2;Temp;Humidity;BMP_temperature;BMP_pressure;BME280_temperature;BME280_humidity;BME280_pressure;Samples;Min_cycle;Max_cycle;Signal;HPM_P1;HPM_P2
2023/04/24 00:00:28;;;;;;;1.77;1.10;;;11.20;99.90;;;;;;5056635;28;20480;-79
2023/04/24 00:02:56;;;;;;;1.80;1.70;;;11.30;99.90;;;;;;5065506;28;20947;-78
2023/04/24 00:05:24;;;;;;;1.00;0.90;;;11.50;99.90;;;;;;5058773;28;20470;-78
2023/04/24 00:07:52;;;;;;;1.40;1.10;;;11.50;99.90;;;;;;5054355;28;20535;-77
2023/04/24 00:10:19;;;;;;;2.40;1.50;;;11.50;99.90;;;;;;5061161;28;21242;-78
2023/04/24 00:12:46;;;;;;;1.20;1.10;;;11.50;99.90;;;;;;5064864;28;20445;-78
2023/04/24 00:15:15;;;;;;;2.60;1.10;;;11.50;99.90;;;;;;5060426;28;20461;-77
2023/04/24 00:17:42;;;;;;;0.80;0.80;;;11.60;99.90;;;;;;5054106;28;20433;-79
2023/04/24 00:20:11;;;;;;;0.80;0.80;;;11.60;99.90;;;;;;5060382;28;20452;-78
2023/04/24 00:22:38;;;;;;;1.00;0.90;;;11.60;99.90;;;;;;5057291;28;20449;-78
2023/04/24 00:25:06;;;;;;;0.97;0.97;;;11.70;99.90;;;;;;5058710;28;20812;-78
2023/04/24 00:27:34;;;;;;;1.70;0.67;;;11.60;99.90;;;;;;5058072;28;20461;-78
2023/04/24 00:30:01;;;;;;;1.17;0.87;;;11.60;99.90;;;;;;5063943;28;20471;-78
2023/04/24 00:32:30;;;;;;;2.30;0.70;;;11.70;99.90;;;;;;5064615;28;20437;-79
2023/04/24 00:34:57;;;;;;;4.67;1.00;;;11.70;99.90;;;;;;5064486;28;20441;-79
2023/04/24 00:37:25;;;;;;;0.87;0.80;;;11.70;99.90;;;;;;5064971;28;20955;-78
2023/04/24 00:39:52;;;;;;;1.00;0.90;;;11.70;99.90;;;;;;5058363;28;20506;-78
2023/04/24 00:42:19;;;;;;;1.63;0.70;;;11.70;99.90;;;;;;5061246;28;20899;-78
2023/04/24 00:44:46;;;;;;;0.80;0.80;;;11.70;99.90;;;;;;5055787;28;20536;-79
2023/04/24 00:47:15;;;;;;;1.17;0.70;;;11.60;99.90;;;;;;5058769;28;20460;-78
2023/04/24 00:49:43;;;;;;;0.60;0.60;;;11.60;99.90;;;;;;5063650;28;20512;-79
2023/04/24 00:52:10;;;;;;;0.80;0.70;;;11.50;99.90;;;;;;5060711;28;20506;-79
2023/04/24 00:54:37;;;;;;;1.00;0.90;;;11.50;99.90;;;;;;5058426;28;20455;-78
2023/04/24 00:57:05;;;;;;;0.73;0.70;;;11.50;99.90;;;;;;5062684;28;20456;-79
2023/04/24 00:59:32;;;;;;;1.93;0.77;;;11.40;99.90;;;;;;5058056;28;20451;-79
2023/04/24 01:01:59;;;;;;;1.53;0.87;;;11.40;99.90;;;;;;5059828;28;20449;-78
2023/04/24 01:04:27;;;;;;;3.20;0.67;;;11.30;99.90;;;;;;5063875;28;20456;-79
2023/04/24 01:06:56;;;;;;;1.63;0.80;;;11.30;99.90;;;;;;5062520;28;20441;-78
2023/04/24 01:09:24;;;;;;;0.50;0.50;;;11.30;99.90;;;;;;5059235;28;20514;-79
2023/04/24 01:11:51;;;;;;;1.67;0.60;;;11.20;99.90;;;;;;5059936;28;20465;-79
2023/04/24 01:14:18;;;;;;;2.93;0.60;;;11.20;99.90;;;;;;5050950;28;21028;-78
2023/04/24 01:16:45;;;;;;;0.80;0.70;;;11.20;99.90;;;;;;5060901;28;21478;-78
2023/04/24 01:19:13;;;;;;;0.70;0.60;;;11.20;99.90;;;;;;5066665;28;20448;-78
2023/04/24 01:21:43;;;;;;;0.60;0.60;;;11.20;99.90;;;;;;5061022;28;20460;-78
2023/04/24 01:24:11;;;;;;;2.70;0.70;;;11.10;99.90;;;;;;5058771;28;20500;-78
2023/04/24 01:26:38;;;;;;;0.80;0.63;;;11.10;99.90;;;;;;5059246;28;20495;-78
2023/04/24 01:29:05;;;;;;;1.27;1.00;;;11.10;99.90;;;;;;5062182;28;20498;-79
2023/04/24 01:31:34;;;;;;;1.30;0.50;;;11.10;99.90;;;;;;5058720;28;20891;-79
2023/04/24 01:34:01;;;;;;;0.70;0.70;;;11.10;99.90;;;;;;5064648;28;20466;-78
2023/04/24 01:36:29;;;;;;;0.77;0.50;;;11.10;99.90;;;;;;5059426;28;20465;-78
2023/04/24 01:38:56;;;;;;;0.80;0.80;;;11.10;99.90;;;;;;5061630;28;20460;-79
2023/04/24 01:41:25;;;;;;;1.00;0.67;;;11.10;99.90;;;;;;5055620;28;20476;-79
2023/04/24 01:43:52;;;;;;;0.70;0.57;;;11.10;99.90;;;;;;5060100;28;20497;-78
2023/04/24 01:46:20;;;;;;;0.80;0.63;;;11.00;99.90;;;;;;5050593;28;20440;-78
2023/04/24 01:48:47;;;;;;;2.77;0.73;;;11.00;99.90;;;;;;5057436;28;20523;-78
2023/04/24 01:51:14;;;;;;;0.93;0.60;;;11.00;99.90;;;;;;5059913;28;20562;-78
2023/04/24 01:53:41;;;;;;;0.80;0.80;;;11.00;99.90;;;;;;5056232;28;20441;-78
2023/04/24 01:56:08;;;;;;;0.80;0.60;;;10.90;99.90;;;;;;5058532;28;21004;-78
2023/04/24 01:58:37;;;;;;;0.90;0.60;;;10.90;99.90;;;;;;5064207;28;20537;-78
2023/04/24 02:01:03;;;;;;;0.60;0.60;;;10.90;99.90;;;;;;5057761;28;20528;-79
2023/04/24 02:03:30;;;;;;;0.80;0.67;;;10.80;99.90;;;;;;5056579;28;20514;-79
2023/04/24 02:05:57;;;;;;;0.80;0.63;;;10.80;99.90;;;;;;5065723;28;20444;-78
2023/04/24 02:08:24;;;;;;;2.00;0.70;;;10.80;99.90;;;;;;5050562;28;20444;-78
2023/04/24 02:10:52;;;;;;;0.50;0.50;;;10.80;99.90;;;;;;5057860;28;20571;-79
2023/04/24 02:13:19;;;;;;;0.73;0.60;;;10.80;99.90;;;;;;5054748;28;20974;-79
2023/04/24 02:15:47;;;;;;;1.33;0.50;;;10.80;99.90;;;;;;5059772;28;20456;-78
2023/04/24 02:18:15;;;;;;;0.60;0.43;;;10.80;99.90;;;;;;5059552;28;20505;-79
2023/04/24 02:20:42;;;;;;;0.60;0.50;;;10.80;99.90;;;;;;5061101;28;20787;-79
2023/04/24 02:23:09;;;;;;;0.53;0.50;;;10.80;99.90;;;;;;5053045;28;20506;-79
2023/04/24 02:25:36;;;;;;;0.50;0.50;;;10.90;99.90;;;;;;5062650;28;20438;-78
2023/04/24 02:28:03;;;;;;;0.80;0.63;;;10.90;99.90;;;;;;5051908;28;20955;-78
2023/04/24 02:30:30;;;;;;;0.60;0.60;;;10.90;99.90;;;;;;5059667;28;20495;-79
2023/04/24 02:32:58;;;;;;;0.70;0.70;;;10.90;99.90;;;;;;5052490;28;20449;-79
2023/04/24 02:35:25;;;;;;;1.37;0.70;;;10.90;99.90;;;;;;5057876;28;21134;-78
2023/04/24 02:37:52;;;;;;;1.03;0.80;;;11.00;99.90;;;;;;5058799;28;20433;-78
2023/04/24 02:40:19;;;;;;;0.90;0.90;;;11.00;99.90;;;;;;5066815;28;20469;-79
2023/04/24 02:42:46;;;;;;;0.83;0.70;;;10.90;99.90;;;;;;5062285;28;20461;-79
2023/04/24 02:45:13;;;;;;;0.60;0.60;;;10.90;99.90;;;;;;5068667;28;20787;-80
2023/04/24 02:47:40;;;;;;;0.63;0.63;;;10.90;99.90;;;;;;5069966;28;20902;-80
2023/04/24 02:50:09;;;;;;;0.80;0.80;;;11.00;99.90;;;;;;5082021;28;20502;-80
2023/04/24 02:52:36;;;;;;;0.70;0.70;;;10.90;99.90;;;;;;5079718;28;20502;-77
2023/04/24 02:55:04;;;;;;;1.80;0.83;;;10.90;99.90;;;;;;5068368;28;20487;-77
2023/04/24 02:57:31;;;;;;;1.67;0.90;;;11.00;99.90;;;;;;5063658;28;20487;-77
2023/04/24 02:59:58;;;;;;;0.73;0.60;;;10.90;99.90;;;;;;5063991;28;20444;-77
2023/04/24 03:02:25;;;;;;;0.90;0.80;;;11.00;99.90;;;;;;5068646;28;20460;-77
2023/04/24 03:04:52;;;;;;;0.80;0.60;;;11.00;99.90;;;;;;5061315;28;21165;-77
2023/04/24 03:07:21;;;;;;;1.03;0.90;;;10.90;99.90;;;;;;5069747;28;20436;-77
2023/04/24 03:09:48;;;;;;;0.80;0.63;;;10.90;99.90;;;;;;5067976;28;20456;-79
2023/04/24 03:12:16;;;;;;;1.03;0.93;;;11.00;99.90;;;;;;5063065;28;20571;-79
2023/04/24 03:14:43;;;;;;;0.80;0.70;;;11.00;99.90;;;;;;5066457;28;20436;-78
2023/04/24 03:17:10;;;;;;;0.80;0.80;;;11.10;99.90;;;;;;5065682;28;21138;-78
2023/04/24 03:19:38;;;;;;;0.70;0.60;;;11.00;99.90;;;;;;5068514;28;20528;-78
2023/04/24 03:22:05;;;;;;;1.00;0.90;;;10.90;99.90;;;;;;5066815;28;20454;-79
2023/04/24 03:24:34;;;;;;;2.20;1.13;;;11.00;99.90;;;;;;5065293;28;20437;-78
2023/04/24 03:27:00;;;;;;;0.60;0.60;;;10.90;99.90;;;;;;5066365;28;20448;-78
2023/04/24 03:29:27;;;;;;;0.80;0.70;;;10.90;99.90;;;;;;5060082;28;20433;-79
2023/04/24 03:31:54;;;;;;;1.40;1.30;;;10.90;99.90;;;;;;5049579;28;20527;-78
2023/04/24 03:34:21;;;;;;;1.30;1.10;;;10.90;99.90;;;;;;5054208;28;20476;-78
2023/04/24 03:36:48;;;;;;;1.53;1.20;;;10.90;99.90;;;;;;5061874;28;20503;-78
2023/04/24 03:39:15;;;;;;;2.10;1.50;;;10.90;99.90;;;;;;5059128;28;20449;-78
2023/04/24 03:41:43;;;;;;;2.00;1.03;;;10.90;99.90;;;;;;5051277;28;20504;-79
2023/04/24 03:44:10;;;;;;;1.50;1.23;;;10.90;99.90;;;;;;5063547;28;20441;-79
2023/04/24 03:46:37;;;;;;;1.53;1.27;;;10.90;99.90;;;;;;5056440;28;20440;-78
2023/04/24 03:49:04;;;;;;;1.53;1.10;;;10.80;99.90;;;;;;5067508;28;20521;-78
2023/04/24 03:51:31;;;;;;;2.23;1.30;;;10.90;99.90;;;;;;5066069;28;20480;-78
2023/04/24 03:53:58;;;;;;;3.13;1.27;;;10.80;99.90;;;;;;5067740;28;20465;-78
2023/04/24 03:56:25;;;;;;;1.30;1.20;;;10.90;99.90;;;;;;5063433;28;20469;-79
2023/04/24 03:58:54;;;;;;;4.53;1.63;;;10.90;99.90;;;;;;5058369;28;22028;-79
2023/04/24 04:01:21;;;;;;;2.30;1.37;;;10.90;99.90;;;;;;5062877;28;20499;-78
2023/04/24 04:03:48;;;;;;;1.73;1.43;;;10.90;99.90;;;;;;5052260;28;20453;-79
2023/04/24 04:06:15;;;;;;;1.97;1.30;;;10.90;99.90;;;;;;5061064;28;20460;-78
2023/04/24 04:08:42;;;;;;;1.53;0.80;;;10.80;99.90;;;;;;5064788;28;20513;-78
2023/04/24 04:11:09;;;;;;;1.90;1.60;;;10.80;99.90;;;;;;5058302;28;20488;-79
2023/04/24 04:13:36;;;;;;;1.73;1.00;;;10.80;99.90;;;;;;5059843;28;20441;-78
2023/04/24 04:16:04;;;;;;;1.60;0.93;;;10.80;99.90;;;;;;5056060;28;20885;-78
2023/04/24 04:18:31;;;;;;;1.03;0.80;;;10.80;99.90;;;;;;5055001;28;20967;-78
2023/04/24 04:21:00;;;;;;;1.53;1.00;;;10.80;99.90;;;;;;5060451;28;20785;-79
2023/04/24 04:23:27;;;;;;;0.87;0.60;;;10.80;99.90;;;;;;5065015;28;20551;-78
2023/04/24 04:25:54;;;;;;;0.83;0.70;;;10.80;99.90;;;;;;5055293;28;20446;-79
2023/04/24 04:28:21;;;;;;;0.93;0.60;;;10.80;99.90;;;;;;5061227;28;20997;-78
2023/04/24 04:30:49;;;;;;;0.60;0.60;;;10.80;99.90;;;;;;5056435;28;21209;-79
2023/04/24 04:33:18;;;;;;;0.83;0.50;;;10.80;99.90;;;;;;5051821;28;20535;-78
2023/04/24 04:35:48;;;;;;;0.50;0.50;;;10.80;99.90;;;;;;5056433;28;20551;-78
2023/04/24 04:38:15;;;;;;;0.47;0.40;;;10.80;99.90;;;;;;5057044;28;20452;-79
2023/04/24 04:40:42;;;;;;;0.70;0.70;;;10.80;99.90;;;;;;5063782;28;20468;-79
2023/04/24 04:43:10;;;;;;;0.87;0.50;;;10.80;99.90;;;;;;5060004;28;20503;-79
2023/04/24 04:45:38;;;;;;;0.60;0.50;;;10.80;99.90;;;;;;5063787;28;20460;-78
2023/04/24 04:48:07;;;;;;;0.60;0.50;;;10.70;99.90;;;;;;5059683;28;20488;-79
2023/04/24 04:50:35;;;;;;;2.10;0.60;;;10.70;99.90;;;;;;5066810;28;20472;-80
2023/04/24 04:53:02;;;;;;;0.60;0.50;;;10.70;99.90;;;;;;5056588;28;20882;-79
2023/04/24 04:55:29;;;;;;;1.33;0.50;;;10.60;99.90;;;;;;5053549;28;21103;-79
2023/04/24 04:57:57;;;;;;;0.60;0.50;;;10.50;99.90;;;;;;5056185;28;20621;-77
2023/04/24 05:00:25;;;;;;;1.63;0.50;;;10.50;99.90;;;;;;5061405;28;20455;-78
2023/04/24 05:02:52;;;;;;;2.03;0.70;;;10.40;99.90;;;;;;5051622;28;20511;-77
2023/04/24 05:05:19;;;;;;;1.03;0.60;;;10.40;99.90;;;;;;5062555;28;20494;-78
2023/04/24 05:07:48;;;;;;;0.50;0.50;;;10.40;99.90;;;;;;5054858;28;20563;-78
2023/04/24 05:10:15;;;;;;;2.07;0.60;;;10.40;99.90;;;;;;5061203;28;20449;-79
2023/04/24 05:12:41;;;;;;;0.90;0.50;;;10.40;99.90;;;;;;5059097;28;21216;-78
2023/04/24 05:15:09;;;;;;;0.80;0.60;;;10.40;99.90;;;;;;5061520;28;20967;-77
2023/04/24 05:17:36;;;;;;;0.60;0.57;;;10.30;99.90;;;;;;5059527;28;20445;-80
2023/04/24 05:20:05;;;;;;;0.70;0.50;;;10.30;99.90;;;;;;5054777;28;20526;-79
2023/04/24 05:22:32;;;;;;;1.00;0.60;;;10.30;99.90;;;;;;5073101;28;20468;-79
2023/04/24 05:25:00;;;;;;;0.60;0.50;;;10.30;99.90;;;;;;5067635;28;20437;-79
2023/04/24 05:27:27;;;;;;;0.80;0.70;;;10.30;99.90;;;;;;5063721;28;20460;-80
2023/04/24 05:29:54;;;;;;;0.73;0.57;;;10.30;99.90;;;;;;5067581;28;20464;-78
2023/04/24 05:32:21;;;;;;;0.73;0.70;;;10.30;99.90;;;;;;5058585;28;20914;-79
2023/04/24 05:34:48;;;;;;;0.60;0.50;;;10.20;99.90;;;;;;5059795;28;21022;-79
2023/04/24 05:37:15;;;;;;;1.53;0.70;;;10.20;99.90;;;;;;5057090;28;20983;-79
2023/04/24 05:39:42;;;;;;;1.20;0.70;;;10.30;99.90;;;;;;5057295;28;20523;-79
2023/04/24 05:42:10;;;;;;;0.70;0.50;;;10.20;99.90;;;;;;5063732;28;20519;-78
2023/04/24 05:44:37;;;;;;;0.47;0.40;;;10.20;99.90;;;;;;5063907;28;20445;-79
2023/04/24 05:47:04;;;;;;;0.93;0.60;;;10.10;99.90;;;;;;5067727;28;20453;-79
2023/04/24 05:49:31;;;;;;;0.90;0.70;;;10.10;99.90;;;;;;5069079;28;20448;-78
2023/04/24 05:51:58;;;;;;;0.80;0.60;;;10.00;99.90;;;;;;5061687;28;20488;-77
2023/04/24 05:54:26;;;;;;;0.77;0.50;;;10.00;99.90;;;;;;5073443;28;20475;-79
2023/04/24 05:56:54;;;;;;;0.60;0.50;;;9.90;99.90;;;;;;5070735;28;20452;-79
2023/04/24 05:59:22;;;;;;;1.80;0.50;;;9.90;99.90;;;;;;5083467;28;20544;-79
2023/04/24 06:01:49;;;;;;;0.80;0.60;;;9.90;99.90;;;;;;5078170;28;20444;-77
2023/04/24 06:04:16;;;;;;;0.60;0.53;;;9.90;99.90;;;;;;5070637;28;20460;-78
2023/04/24 06:06:43;;;;;;;0.93;0.63;;;9.90;99.90;;;;;;5067155;28;20460;-78
2023/04/24 06:09:10;;;;;;;0.70;0.50;;;9.90;99.90;;;;;;5062012;28;20453;-77
2023/04/24 06:11:37;;;;;;;0.73;0.50;;;9.90;99.90;;;;;;5055530;28;20979;-77
2023/04/24 06:14:04;;;;;;;1.53;0.50;;;9.90;99.90;;;;;;5065546;28;20452;-78
2023/04/24 06:16:32;;;;;;;0.67;0.67;;;9.90;99.90;;;;;;5065715;28;20801;-78
2023/04/24 06:18:59;;;;;;;0.70;0.50;;;9.90;99.90;;;;;;5064008;28;20440;-77
2023/04/24 06:21:27;;;;;;;0.50;0.40;;;9.90;99.90;;;;;;5061318;28;20551;-78
2023/04/24 06:23:55;;;;;;;1.13;0.40;;;9.90;99.90;;;;;;5063587;28;20496;-77
2023/04/24 06:26:24;;;;;;;0.40;0.40;;;9.80;99.90;;;;;;5050606;28;20532;-78
2023/04/24 06:28:53;;;;;;;0.50;0.40;;;9.80;99.90;;;;;;5057221;28;20460;-78
2023/04/24 06:31:20;;;;;;;0.50;0.47;;;9.80;99.90;;;;;;5066715;28;20458;-78
2023/04/24 06:33:49;;;;;;;0.40;0.40;;;9.80;99.90;;;;;;5063480;28;20460;-78
2023/04/24 06:36:16;;;;;;;0.70;0.40;;;9.80;99.90;;;;;;5061712;28;20525;-77
2023/04/24 06:38:43;;;;;;;0.47;0.40;;;9.90;99.90;;;;;;5063098;28;20444;-77
2023/04/24 06:41:10;;;;;;;0.50;0.40;;;9.90;99.90;;;;;;5061237;28;20473;-76
2023/04/24 06:43:37;;;;;;;0.40;0.40;;;9.90;99.90;;;;;;5046345;28;20491;-77
2023/04/24 06:46:04;;;;;;;1.00;0.40;;;10.00;99.90;;;;;;5059977;28;20481;-77
2023/04/24 06:48:31;;;;;;;0.50;0.50;;;10.00;99.90;;;;;;5051737;28;20522;-78
2023/04/24 06:51:00;;;;;;;0.43;0.43;;;10.00;99.90;;;;;;5057212;28;20453;-75
2023/04/24 06:53:27;;;;;;;0.80;0.40;;;10.00;99.90;;;;;;5056755;28;20507;-76
2023/04/24 06:55:54;;;;;;;0.50;0.40;;;10.00;99.90;;;;;;5062864;28;20524;-81
2023/04/24 06:58:21;;;;;;;0.43;0.37;;;10.10;99.90;;;;;;5058797;28;20483;-75
2023/04/24 07:00:48;;;;;;;0.70;0.57;;;10.10;99.90;;;;;;5066956;28;20518;-76
2023/04/24 07:03:15;;;;;;;0.50;0.40;;;10.20;99.90;;;;;;5055072;28;20475;-76
2023/04/24 07:05:42;;;;;;;1.53;0.50;;;10.10;99.90;;;;;;5050235;28;20460;-80
2023/04/24 07:08:11;;;;;;;0.63;0.40;;;10.20;99.90;;;;;;5052335;28;20457;-75
2023/04/24 07:10:38;;;;;;;1.40;0.47;;;10.10;99.90;;;;;;5054358;28;20917;-75
2023/04/24 07:13:06;;;;;;;0.70;0.40;;;10.10;99.90;;;;;;5055534;28;20838;-75
2023/04/24 07:15:33;;;;;;;0.73;0.63;;;10.20;99.90;;;;;;5055595;28;20499;-76
2023/04/24 07:18:00;;;;;;;0.97;0.50;;;10.20;99.90;;;;;;5051513;28;20930;-76
2023/04/24 07:20:27;;;;;;;0.60;0.60;;;10.20;99.90;;;;;;5064725;28;20497;-75
2023/04/24 07:22:54;;;;;;;0.83;0.37;;;10.30;99.90;;;;;;5067973;28;20440;-76
2023/04/24 07:25:23;;;;;;;0.80;0.50;;;10.40;99.90;;;;;;5067622;28;20460;-74
2023/04/24 07:27:50;;;;;;;2.20;0.60;;;10.50;99.90;;;;;;5067749;28;20861;-74
2023/04/24 07:30:17;;;;;;;0.80;0.70;;;10.60;99.90;;;;;;5068511;28;20440;-73
2023/04/24 07:32:44;;;;;;;1.23;1.13;;;10.60;99.90;;;;;;5068964;28;20475;-74
2023/04/24 07:35:11;;;;;;;0.60;0.50;;;10.70;99.90;;;;;;5065878;28;20968;-81
2023/04/24 07:37:38;;;;;;;0.90;0.50;;;10.80;99.90;;;;;;5068745;28;20448;-78
2023/04/24 07:40:06;;;;;;;0.80;0.67;;;10.80;99.90;;;;;;5062094;28;20908;-80
2023/04/24 07:42:36;;;;;;;0.50;0.40;;;10.80;99.90;;;;;;5067453;28;20490;-81
2023/04/24 07:45:03;;;;;;;3.03;0.70;;;11.00;99.90;;;;;;5060258;28;20469;-79
2023/04/24 07:47:30;;;;;;;0.60;0.60;;;11.10;99.90;;;;;;5061088;28;20484;-76
2023/04/24 07:49:57;;;;;;;0.70;0.60;;;11.10;99.90;;;;;;5063427;28;20460;-81
2023/04/24 07:52:24;;;;;;;0.60;0.60;;;11.00;99.90;;;;;;5057787;28;20484;-77
2023/04/24 07:54:52;;;;;;;1.23;0.50;;;11.00;99.90;;;;;;5058542;28;20450;-81
2023/04/24 07:57:19;;;;;;;0.97;0.40;;;10.90;99.90;;;;;;5059160;28;20497;-84
2023/04/24 07:59:47;;;;;;;2.03;0.50;;;11.00;99.90;;;;;;5058536;28;20445;-77
2023/04/24 08:02:15;;;;;;;0.50;0.37;;;11.20;99.90;;;;;;5049568;28;20449;-82
2023/04/24 08:04:42;;;;;;;0.50;0.40;;;11.00;99.90;;;;;;5059345;28;20483;-78
2023/04/24 08:07:09;;;;;;;3.03;0.60;;;11.00;99.90;;;;;;5057235;28;20468;-78
2023/04/24 08:09:36;;;;;;;0.60;0.47;;;10.90;99.90;;;;;;5062894;28;20460;-78
2023/04/24 08:12:03;;;;;;;4.23;0.40;;;11.00;99.90;;;;;;5050519;28;20899;-80
2023/04/24 08:14:30;;;;;;;3.77;0.60;;;11.00;99.90;;;;;;5061369;28;20438;-83
2023/04/24 08:16:59;;;;;;;1.93;0.70;;;11.00;99.90;;;;;;5056924;28;20472;-82
2023/04/24 08:19:26;;;;;;;0.70;0.70;;;11.10;99.90;;;;;;5061101;28;20468;-81
2023/04/24 08:21:53;;;;;;;2.13;0.60;;;11.10;99.90;;;;;;5052024;28;20499;-81
2023/04/24 08:24:20;;;;;;;1.57;0.60;;;11.00;99.90;;;;;;5064539;28;20513;-82
2023/04/24 08:26:50;;;;;;;1.07;0.60;;;11.00;99.90;;;;;;5067693;28;20444;-81
2023/04/24 08:29:17;;;;;;;0.60;0.50;;;11.20;99.90;;;;;;5062959;28;20575;-82
2023/04/24 08:31:43;;;;;;;1.00;0.70;;;11.20;99.90;;;;;;5066401;28;20464;-81
2023/04/24 08:34:12;;;;;;;0.60;0.50;;;11.20;99.90;;;;;;5065403;28;20522;-77
2023/04/24 08:36:40;;;;;;;0.50;0.50;;;11.00;99.90;;;;;;5067620;28;20456;-77
2023/04/24 08:39:07;;;;;;;2.00;0.50;;;11.00;99.90;;;;;;5067415;28;20452;-77
2023/04/24 08:41:35;;;;;;;0.50;0.50;;;11.10;99.90;;;;;;5061417;28;20518;-77
2023/04/24 08:44:03;;;;;;;1.70;0.83;;;11.20;99.90;;;;;;5067949;28;20502;-76
2023/04/24 08:46:31;;;;;;;1.00;0.63;;;11.20;99.90;;;;;;5061984;28;20536;-77
2023/04/24 08:48:59;;;;;;;0.53;0.50;;;11.20;99.90;;;;;;5067942;28;20440;-76
2023/04/24 08:51:28;;;;;;;0.57;0.50;;;11.20;99.90;;;;;;5067153;28;20447;-77
2023/04/24 08:53:55;;;;;;;0.97;0.40;;;11.20;99.90;;;;;;5058111;28;20978;-77
2023/04/24 08:56:24;;;;;;;0.83;0.70;;;11.20;99.90;;;;;;5068521;28;20675;-77
2023/04/24 08:58:52;;;;;;;1.00;0.40;;;11.10;99.90;;;;;;5064132;28;20570;-77
2023/04/24 09:01:20;;;;;;;0.43;0.43;;;11.10;99.90;;;;;;5073342;28;20569;-77
2023/04/24 09:03:49;;;;;;;0.53;0.43;;;11.10;99.90;;;;;;5075465;28;20524;-77
2023/04/24 09:06:18;;;;;;;0.80;0.60;;;11.10;99.90;;;;;;5083618;28;20448;-76
2023/04/24 09:08:49;;;;;;;6.63;0.50;;;11.10;99.90;;;;;;5075526;28;20441;-77
2023/04/24 09:11:16;;;;;;;0.40;0.40;;;11.20;99.90;;;;;;5073752;28;20460;-77
2023/04/24 09:13:44;;;;;;;0.40;0.37;;;11.30;99.90;;;;;;5069162;28;20563;-77
2023/04/24 09:16:11;;;;;;;1.17;0.33;;;11.50;99.90;;;;;;5067515;28;20490;-77
2023/04/24 09:18:38;;;;;;;0.90;0.50;;;11.60;99.90;;;;;;5067534;28;20436;-78
2023/04/24 09:21:09;;;;;;;0.97;0.30;;;11.50;99.90;;;;;;5059689;28;20919;-76
2023/04/24 09:23:36;;;;;;;0.80;0.30;;;11.60;99.90;;;;;;5059252;28;20498;-76
2023/04/24 09:26:05;;;;;;;0.97;0.40;;;11.50;99.90;;;;;;5065943;28;20554;-77
2023/04/24 09:28:37;;;;;;;0.53;0.40;;;11.60;99.90;;;;;;5065950;28;20446;-76
2023/04/24 09:31:06;;;;;;;0.37;0.30;;;11.70;99.90;;;;;;5057004;28;20445;-76
2023/04/24 09:33:34;;;;;;;0.40;0.30;;;11.70;99.90;;;;;;5066272;28;20483;-76
2023/04/24 09:36:02;;;;;;;0.50;0.40;;;11.80;99.90;;;;;;5057576;28;20863;-76
2023/04/24 09:38:36;;;;;;;0.50;0.40;;;11.90;99.90;;;;;;5057402;28;20433;-76
2023/04/24 09:41:07;;;;;;;0.50;0.30;;;12.20;99.90;;;;;;5053283;28;20485;-76
2023/04/24 09:43:34;;;;;;;0.50;0.40;;;12.00;99.90;;;;;;5054618;28;20461;-76
2023/04/24 09:46:07;;;;;;;2.30;0.40;;;12.10;99.90;;;;;;5053905;28;20460;-76
2023/04/24 09:48:35;;;;;;;2.40;0.30;;;12.20;99.90;;;;;;5055483;28;20442;-76
2023/04/24 09:51:06;;;;;;;0.70;0.40;;;12.10;99.90;;;;;;5052325;28;20466;-76
2023/04/24 09:53:33;;;;;;;2.73;0.33;;;12.20;99.90;;;;;;5059014;28;20530;-76
2023/04/24 09:56:08;;;;;;;0.40;0.30;;;12.40;99.90;;;;;;5052738;28;20441;-76
2023/04/24 09:58:36;;;;;;;0.60;0.30;;;12.50;99.90;;;;;;5058307;28;20483;-76
2023/04/24 10:01:05;;;;;;;0.40;0.30;;;12.60;99.90;;;;;;5062467;28;20529;-76
2023/04/24 10:03:33;;;;;;;0.40;0.30;;;12.80;99.90;;;;;;5051814;28;20469;-76
2023/04/24 10:06:00;;;;;;;0.60;0.40;;;13.00;99.90;;;;;;5061110;28;20925;-76
2023/04/24 10:08:33;;;;;;;1.47;0.40;;;13.00;99.90;;;;;;5060717;28;20544;-76
2023/04/24 10:11:01;;;;;;;1.03;0.30;;;13.10;99.90;;;;;;5059034;28;20453;-76
2023/04/24 10:13:30;;;;;;;0.97;0.30;;;13.20;99.90;;;;;;5060502;28;20487;-76
2023/04/24 10:16:00;;;;;;;1.13;0.30;;;13.30;99.90;;;;;;5052470;28;20936;-76
2023/04/24 10:18:28;;;;;;;0.80;0.30;;;13.50;99.90;;;;;;5050537;28;20501;-76
2023/04/24 10:20:56;;;;;;;0.67;0.37;;;13.60;99.90;;;;;;5054726;28;20522;-76
2023/04/24 10:23:23;;;;;;;0.40;0.40;;;13.50;99.90;;;;;;5058454;28;20535;-76
2023/04/24 10:25:51;;;;;;;0.43;0.30;;;13.70;99.90;;;;;;5065795;28;20511;-76
2023/04/24 10:28:20;;;;;;;0.80;0.30;;;13.80;99.90;;;;;;5066134;28;20829;-76
2023/04/24 10:30:49;;;;;;;0.50;0.40;;;13.90;99.90;;;;;;5064168;28;20461;-77
2023/04/24 10:33:17;;;;;;;8.13;0.40;;;13.80;99.90;;;;;;5066259;28;20507;-76
2023/04/24 10:35:49;;;;;;;0.40;0.40;;;13.50;99.90;;;;;;5055829;28;20449;-77
2023/04/24 10:38:23;;;;;;;0.70;0.50;;;13.30;99.90;;;;;;5061356;28;20466;-76
2023/04/24 10:40:50;;;;;;;0.53;0.30;;;13.10;99.90;;;;;;5049696;28;20494;-75
2023/04/24 10:43:19;;;;;;;0.70;0.40;;;13.10;99.90;;;;;;5057187;28;20498;-76
2023/04/24 10:48:52;;;;;;;0.67;0.37;;;13.50;99.90;;;;;;5096813;27;20521;-76
2023/04/24 10:51:22;;;;;;;1.03;0.30;;;13.70;99.90;;;;;;5079116;28;20461;-75
2023/04/24 10:53:51;;;;;;;0.60;0.30;;;14.30;99.90;;;;;;5075264;28;20452;-76
2023/04/24 10:56:18;;;;;;;2.43;0.40;;;14.60;99.90;;;;;;5081282;28;20463;-76
2023/04/24 10:58:52;;;;;;;1.03;0.30;;;14.70;99.90;;;;;;5065168;28;20441;-75
2023/04/24 11:01:27;;;;;;;0.40;0.40;;;15.00;99.90;;;;;;5071820;28;20483;-77
2023/04/24 11:03:58;;;;;;;0.43;0.30;;;14.70;99.90;;;;;;5070022;28;20464;-77
2023/04/24 11:06:32;;;;;;;0.60;0.30;;;14.60;99.90;;;;;;5081858;28;20501;-77
2023/04/24 11:09:12;;;;;;;0.80;0.40;;;14.60;99.90;;;;;;5073409;28;20451;-76
2023/04/24 11:11:45;;;;;;;1.07;0.30;;;14.50;99.90;;;;;;5071266;28;21008;-76
2023/04/24 11:14:14;;;;;;;0.50;0.40;;;14.70;99.90;;;;;;5081912;28;20501;-77
2023/04/24 11:16:46;;;;;;;0.80;0.43;;;14.60;99.90;;;;;;5070444;28;20543;-77
2023/04/24 11:19:24;;;;;;;1.27;0.40;;;14.60;99.90;;;;;;5071088;28;20439;-78
2023/04/24 11:21:57;;;;;;;1.67;0.40;;;14.60;99.90;;;;;;5079816;28;20497;-77
2023/04/24 11:24:32;;;;;;;0.83;0.40;;;15.00;99.90;;;;;;5083032;28;20800;-77
2023/04/24 11:27:05;;;;;;;0.50;0.40;;;15.20;99.90;;;;;;5082485;28;20560;-78
2023/04/24 11:29:47;;;;;;;1.23;0.40;;;15.20;99.90;;;;;;5082286;28;20435;-78
2023/04/24 11:32:19;;;;;;;2.03;0.40;;;15.30;99.90;;;;;;5080949;28;20451;-77
2023/04/24 11:34:49;;;;;;;0.60;0.47;;;15.40;99.90;;;;;;5075179;28;20464;-78
2023/04/24 11:37:16;;;;;;;1.37;0.40;;;15.10;99.90;;;;;;5083685;28;20448;-78
2023/04/24 11:39:43;;;;;;;0.80;0.50;;;14.50;99.90;;;;;;5083105;28;20444;-78
2023/04/24 11:42:10;;;;;;;0.50;0.40;;;14.20;99.90;;;;;;5080212;28;20884;-79
2023/04/24 11:44:38;;;;;;;0.60;0.40;;;14.10;99.90;;;;;;5071711;28;20467;-80
2023/04/24 11:47:06;;;;;;;0.53;0.40;;;13.80;99.90;;;;;;5079861;28;21019;-82
2023/04/24 11:49:34;;;;;;;4.20;0.40;;;13.90;99.90;;;;;;5078104;28;21117;-78
2023/04/24 11:52:02;;;;;;;0.60;0.30;;;14.10;99.90;;;;;;5085026;28;20534;-80
2023/04/24 11:54:29;;;;;;;0.70;0.37;;;14.20;99.90;;;;;;5086159;28;20468;-78
2023/04/24 11:56:57;;;;;;;0.50;0.43;;;14.70;99.90;;;;;;5082282;28;20444;-78
2023/04/24 11:59:24;;;;;;;0.40;0.30;;;14.80;99.90;;;;;;5055440;28;20474;-77
2023/04/24 12:01:51;;;;;;;0.43;0.40;;;14.90;99.90;;;;;;5065963;28;20472;-77
2023/04/24 12:04:19;;;;;;;0.50;0.40;;;15.00;99.90;;;;;;5070126;28;20464;-79
2023/04/24 12:07:05;;;;;;;0.40;0.33;;;15.20;99.90;;;;;;5071718;28;21214;-78
2023/04/24 12:09:42;;;;;;;2.87;0.40;;;15.40;99.90;;;;;;5073766;28;20527;-78
2023/04/24 12:12:10;;;;;;;1.20;0.40;;;15.00;99.90;;;;;;5076252;28;20446;-77
2023/04/24 12:14:50;;;;;;;1.53;0.40;;;14.90;99.90;;;;;;5079281;28;20474;-79
2023/04/24 12:17:17;;;;;;;0.50;0.40;;;14.50;99.90;;;;;;5075620;28;20515;-78
2023/04/24 12:19:49;;;;;;;0.87;0.60;;;14.60;99.90;;;;;;5077552;28;20934;-78
2023/04/24 12:22:17;;;;;;;0.50;0.30;;;14.70;99.90;;;;;;5065346;28;20453;-79
2023/04/24 12:24:57;;;;;;;0.83;0.30;;;15.00;99.90;;;;;;5068850;28;20441;-78
2023/04/24 12:27:25;;;;;;;0.40;0.30;;;14.90;99.90;;;;;;5066926;28;20561;-78
2023/04/24 12:29:56;;;;;;;0.50;0.40;;;14.70;99.90;;;;;;5068276;28;21038;-79
2023/04/24 12:32:24;;;;;;;0.40;0.40;;;14.50;99.90;;;;;;5056341;28;20964;-79
2023/04/24 12:34:52;;;;;;;0.70;0.40;;;14.10;99.90;;;;;;5068661;28;20445;-78
2023/04/24 12:37:20;;;;;;;1.07;0.40;;;13.50;99.90;;;;;;5063210;28;20456;-81
2023/04/24 12:40:01;;;;;;;3.07;0.50;;;11.20;99.90;;;;;;5061201;28;20825;-80
2023/04/24 12:42:28;;;;;;;1.23;0.60;;;9.80;99.90;;;;;;5061874;28;20549;-80
2023/04/24 12:44:59;;;;;;;0.60;0.50;;;9.40;99.90;;;;;;5055550;28;20575;-80
2023/04/24 12:47:26;;;;;;;1.10;0.50;;;9.10;99.90;;;;;;5064104;28;20542;-80
2023/04/24 12:49:55;;;;;;;0.93;0.50;;;8.90;99.90;;;;;;5062491;28;20437;-80
2023/04/24 12:52:23;;;;;;;1.53;0.60;;;8.80;99.90;;;;;;5063421;28;21090;-80
2023/04/24 12:54:50;;;;;;;0.70;0.60;;;8.70;99.90;;;;;;5061222;28;20531;-80